Time;durP1;ratioP1;P1;durP2;ratioP2;P2;SDS_P1;SDS_P2;PMS_P1;PMS_P2;Temp;Humidity;BMP_temperature;BMP_pressure;BME280_temperature;BME280_humidity;BME280_pressure;Samples;Min_cycle;Max_cycle;Signal;HPM_P1;HPM_P2
2022/01/24 00:00:37;;;;;;;28.60;14.78;;;;;;;-3.98;75.31;101720.88;1735277;82;21216;-62
2022/01/24 00:03:43;;;;;;;27.62;15.55;;;;;;;-3.99;75.37;101712.90;1735533;79;21310;-62
2022/01/24 00:06:53;;;;;;;25.70;14.70;;;;;;;-3.98;75.33;101716.01;1733770;82;21181;-62
2022/01/24 00:10:05;;;;;;;27.58;15.32;;;;;;;-3.95;75.28;101719.91;1734327;82;21215;-62
2022/01/24 00:13:41;;;;;;;25.15;14.47;;;;;;;-3.92;75.16;101721.14;1734142;82;21176;-61
2022/01/24 00:16:24;;;;;;;22.05;13.18;;;;;;;-3.90;75.01;101712.61;1734369;82;21181;-63
2022/01/24 00:29:23;;;;;;;25.20;12.65;;;;;;;-3.85;74.49;101715.52;1730695;82;21250;-62
2022/01/24 00:32:31;;;;;;;24.60;13.75;;;;;;;-3.87;74.33;101723.20;1733771;82;21335;-63
2022/01/24 00:35:36;;;;;;;23.92;12.10;;;;;;;-3.87;74.28;101712.02;1733686;82;21386;-61
2022/01/24 00:38:43;;;;;;;23.73;12.58;;;;;;;-3.85;74.25;101730.23;1734071;82;21526;-64
2022/01/24 00:42:04;;;;;;;20.75;12.50;;;;;;;-3.81;74.26;101709.16;1733778;82;21350;-62
2022/01/24 00:45:16;;;;;;;16.35;9.95;;;;;;;-3.72;74.24;101711.95;1738227;82;21418;-62
2022/01/24 00:48:33;;;;;;;19.98;11.70;;;;;;;-3.70;74.13;101708.77;1734278;82;21346;-62
2022/01/24 00:54:54;;;;;;;21.50;12.03;;;;;;;-3.63;74.02;101703.63;1734036;82;21202;-62
2022/01/24 00:58:02;;;;;;;20.62;12.68;;;;;;;-3.63;73.79;101687.57;1734228;82;21342;-63
2022/01/24 01:01:06;;;;;;;19.85;12.25;;;;;;;-3.64;73.77;101696.50;1733748;82;21469;-62
2022/01/24 01:04:15;;;;;;;19.77;11.65;;;;;;;-3.62;73.73;101696.00;1746611;80;21189;-61
2022/01/24 01:07:34;;;;;;;20.95;11.90;;;;;;;-3.60;73.71;101694.15;1798458;79;21181;-62
2022/01/24 01:24:07;;;;;;;21.62;11.57;;;;;;;-3.42;73.40;101690.79;1799180;79;21720;-62
2022/01/24 01:27:21;;;;;;;20.60;12.03;;;;;;;-3.39;73.42;101693.34;1799957;79;21185;-61
2022/01/24 01:30:33;;;;;;;17.05;9.60;;;;;;;-3.34;73.43;101683.34;1798806;79;21177;-61
2022/01/24 01:37:27;;;;;;;22.67;12.70;;;;;;;-3.22;73.12;101697.15;1799381;79;21165;-61
2022/01/24 01:52:15;;;;;;;26.02;13.78;;;;;;;-3.22;72.91;101704.33;1798970;79;21323;-61
2022/01/24 01:56:53;;;;;;;26.75;14.25;;;;;;;-3.20;73.40;101701.11;1798997;80;21524;-62
2022/01/24 02:00:00;;;;;;;26.77;13.28;;;;;;;-3.17;73.48;101700.98;1798766;80;21224;-61
2022/01/24 02:03:05;;;;;;;25.52;12.88;;;;;;;-3.17;73.48;101683.58;1798814;80;21284;-63
2022/01/24 02:06:12;;;;;;;24.07;12.55;;;;;;;-3.15;73.59;101687.09;1796817;79;21316;-61
2022/01/24 02:09:21;;;;;;;25.40;13.75;;;;;;;-3.15;73.84;101688.42;1799277;79;21797;-61
2022/01/24 02:12:32;;;;;;;22.52;13.62;;;;;;;-3.08;73.85;101685.94;1800259;79;21213;-62
2022/01/24 02:25:32;;;;;;;22.65;11.95;;;;;;;-2.97;74.98;101681.05;1798563;80;21252;-62
2022/01/24 02:32:03;;;;;;;17.48;11.05;;;;;;;-2.92;74.40;101685.77;1799423;79;21271;-61
2022/01/24 02:35:09;;;;;;;23.22;13.08;;;;;;;-2.91;74.39;101669.20;1799168;79;21224;-61
2022/01/24 02:48:26;;;;;;;24.70;12.90;;;;;;;-2.90;77.11;101669.14;1799002;79;21196;-60
2022/01/24 02:51:53;;;;;;;18.65;11.33;;;;;;;-2.90;77.59;101671.81;1798910;79;21216;-61
2022/01/24 02:54:39;;;;;;;17.95;10.90;;;;;;;-2.91;77.66;101668.74;1798967;79;21209;-60
2022/01/24 02:57:50;;;;;;;18.05;10.10;;;;;;;-2.89;77.30;101664.20;1799488;79;21311;-62
2022/01/24 03:01:06;;;;;;;15.93;10.85;;;;;;;-2.87;77.52;101660.13;1799565;79;21322;-62
2022/01/24 03:04:11;;;;;;;16.57;9.98;;;;;;;-2.90;77.65;101649.05;1800185;79;21236;-62
2022/01/24 03:07:18;;;;;;;17.15;10.72;;;;;;;-2.90;76.57;101658.42;1796643;79;21800;-61
2022/01/24 03:10:35;;;;;;;19.82;10.82;;;;;;;-2.87;75.41;101652.09;1799456;79;21951;-61
2022/01/24 03:13:33;;;;;;;14.85;9.53;;;;;;;-2.84;76.00;101665.36;1763853;80;21742;-61
2022/01/24 03:16:39;;;;;;;19.60;10.35;;;;;;;-2.81;75.92;101651.39;1798982;79;21212;-62
2022/01/24 03:19:50;;;;;;;18.67;10.98;;;;;;;-2.84;76.88;101656.87;1799481;79;21201;-62
2022/01/24 03:23:00;;;;;;;17.02;10.03;;;;;;;-2.82;76.40;101647.43;1799184;79;21259;-62
2022/01/24 03:26:07;;;;;;;18.42;10.32;;;;;;;-2.78;75.45;101641.89;1799143;79;21216;-61
2022/01/24 03:29:12;;;;;;;15.85;9.98;;;;;;;-2.74;74.79;101637.28;1799429;79;21351;-60
2022/01/24 03:32:19;;;;;;;16.85;10.88;;;;;;;-2.68;74.43;101637.88;1799115;79;21295;-60
2022/01/24 03:35:25;;;;;;;17.12;10.18;;;;;;;-2.64;73.72;101623.44;1799321;79;21364;-61
2022/01/24 03:38:30;;;;;;;20.75;9.45;;;;;;;-2.65;73.22;101633.77;1799023;79;21224;-60
2022/01/24 03:41:36;;;;;;;14.80;9.13;;;;;;;-2.68;73.49;101632.52;1799267;79;21233;-61
2022/01/24 03:44:47;;;;;;;15.80;9.63;;;;;;;-2.70;74.84;101633.08;1799104;79;21367;-62
2022/01/24 03:48:06;;;;;;;16.20;10.08;;;;;;;-2.73;74.55;101631.86;1798791;80;21216;-62
2022/01/24 03:51:05;;;;;;;17.95;10.65;;;;;;;-2.74;73.90;101635.95;1799000;79;21335;-62
2022/01/24 03:54:13;;;;;;;16.85;10.60;;;;;;;-2.73;73.98;101647.94;1799315;79;21355;-61
2022/01/24 03:57:20;;;;;;;14.25;9.15;;;;;;;-2.70;74.73;101640.23;1799129;79;21274;-62
2022/01/24 04:00:34;;;;;;;20.75;9.75;;;;;;;-2.64;75.48;101650.23;1798960;79;21352;-62
2022/01/24 04:03:40;;;;;;;14.25;8.98;;;;;;;-2.63;75.52;101639.06;1798867;79;21212;-62
2022/01/24 04:06:52;;;;;;;14.93;9.43;;;;;;;-2.63;75.07;101660.02;1798859;79;21339;-61
2022/01/24 04:10:01;;;;;;;15.53;9.83;;;;;;;-2.65;74.49;101674.42;1798816;80;21335;-61
2022/01/24 04:13:34;;;;;;;15.15;9.73;;;;;;;-2.71;81.23;101689.41;1798832;79;21205;-62
2022/01/24 04:16:51;;;;;;;21.12;11.38;;;;;;;-2.75;81.64;101665.88;1798802;79;21836;-62
2022/01/24 04:23:01;;;;;;;16.97;10.32;;;;;;;-2.69;80.31;101669.64;1798908;79;21370;-62
2022/01/24 04:26:11;;;;;;;17.57;11.28;;;;;;;-2.66;79.55;101656.61;1798783;79;21205;-62
2022/01/24 04:29:18;;;;;;;16.82;9.78;;;;;;;-2.70;86.59;101679.97;1798855;80;21390;-61
2022/01/24 04:32:27;;;;;;;20.97;11.38;;;;;;;-2.71;88.15;101664.80;1798934;80;21198;-62
2022/01/24 04:35:36;;;;;;;19.37;11.97;;;;;;;-2.71;89.18;101662.61;1799509;79;21768;-62
2022/01/24 04:38:44;;;;;;;19.73;11.83;;;;;;;-2.75;90.52;101679.27;1799795;79;21733;-61
2022/01/24 04:41:55;;;;;;;22.00;12.15;;;;;;;-2.77;91.85;101679.79;1799124;79;21375;-63
2022/01/24 04:45:28;;;;;;;17.55;10.48;;;;;;;-2.82;92.03;101679.09;1798896;79;21252;-61
2022/01/24 04:54:54;;;;;;;25.00;12.18;;;;;;;-2.94;92.59;101685.39;1745264;81;21992;-61
2022/01/24 04:58:02;;;;;;;22.15;12.45;;;;;;;-2.97;92.60;101689.08;1755493;81;21955;-61
2022/01/24 05:01:09;;;;;;;20.27;11.78;;;;;;;-2.98;92.94;101679.27;1827916;78;21193;-62
2022/01/24 05:04:19;;;;;;;16.75;9.58;;;;;;;-2.95;92.76;101676.51;1759604;81;21229;-61
2022/01/24 05:07:31;;;;;;;20.00;10.20;;;;;;;-2.93;92.75;101666.58;1831106;78;21348;-61
2022/01/24 05:10:52;;;;;;;21.95;13.08;;;;;;;-3.03;94.34;101661.20;1828498;78;21354;-61
2022/01/24 05:24:04;;;;;;;22.02;12.65;;;;;;;-3.21;97.02;101685.98;1831502;77;21204;-62
2022/01/24 05:27:10;;;;;;;20.43;12.55;;;;;;;-3.23;97.49;101699.43;1761054;81;21339;-62
2022/01/24 05:30:19;;;;;;;23.18;12.95;;;;;;;-3.16;97.93;101698.74;1768782;81;21241;-61
2022/01/24 05:33:29;;;;;;;19.20;11.73;;;;;;;-3.16;98.12;101714.80;1745121;81;21280;-60
2022/01/24 05:36:37;;;;;;;23.70;12.63;;;;;;;-3.17;98.48;101717.05;1764101;81;21344;-60
2022/01/24 05:39:43;;;;;;;20.72;11.97;;;;;;;-3.20;98.81;101691.73;1757165;81;21483;-61
2022/01/24 05:42:48;;;;;;;21.00;12.13;;;;;;;-3.23;99.07;101689.17;1769245;81;21403;-61
2022/01/24 05:45:53;;;;;;;20.65;10.55;;;;;;;-3.27;99.30;101706.30;1737634;82;21939;-60
2022/01/24 05:49:00;;;;;;;21.65;11.60;;;;;;;-3.29;99.40;101698.78;1733582;82;21345;-61
2022/01/24 05:52:09;;;;;;;22.27;12.55;;;;;;;-3.27;99.72;101715.67;1745907;81;21204;-61
2022/01/24 05:55:12;;;;;;;20.75;12.82;;;;;;;-3.26;99.90;101705.36;1753930;81;21658;-61
2022/01/24 05:58:18;;;;;;;19.87;12.47;;;;;;;-3.25;99.91;101701.77;1766524;78;21826;-62
2022/01/24 06:01:29;;;;;;;18.55;11.73;;;;;;;-3.22;100.00;101715.04;1798682;78;21349;-61
2022/01/24 06:04:32;;;;;;;18.30;12.13;;;;;;;-3.18;100.00;101722.02;1798042;79;21712;-62
2022/01/24 06:07:38;;;;;;;22.35;12.60;;;;;;;-3.12;100.00;101733.83;1797553;79;21204;-62
2022/01/24 06:10:47;;;;;;;23.43;13.50;;;;;;;-3.07;100.00;101714.45;1795640;79;21212;-61
2022/01/24 06:13:53;;;;;;;17.05;10.88;;;;;;;-3.02;100.00;101728.55;1799004;79;21593;-61
2022/01/24 06:17:01;;;;;;;22.82;12.53;;;;;;;-2.97;100.00;101727.03;1729578;82;21209;-63
2022/01/24 06:20:08;;;;;;;19.50;11.90;;;;;;;-2.98;100.00;101724.81;1736881;82;21758;-62
2022/01/24 06:23:14;;;;;;;25.17;13.30;;;;;;;-2.93;100.00;101735.37;1728606;82;21881;-62
2022/01/24 06:26:25;;;;;;;19.27;11.08;;;;;;;-2.95;100.00;101725.17;1736996;82;21212;-61
2022/01/24 06:29:34;;;;;;;19.65;11.80;;;;;;;-2.93;100.00;101736.23;1729963;82;21367;-60
2022/01/24 06:32:42;;;;;;;18.32;11.83;;;;;;;-2.88;100.00;101734.71;1800989;78;21354;-61
2022/01/24 06:35:53;;;;;;;18.07;10.80;;;;;;;-2.83;100.00;101734.95;1798278;79;21236;-63
2022/01/24 06:39:00;;;;;;;24.12;12.70;;;;;;;-2.82;100.00;101724.64;1801957;79;21998;-62
2022/01/24 06:42:12;;;;;;;18.50;11.53;;;;;;;-2.82;100.00;101728.66;1798044;79;21693;-61
2022/01/24 06:45:14;;;;;;;20.10;11.55;;;;;;;-2.81;100.00;101726.86;1797560;79;21278;-62
2022/01/24 06:48:19;;;;;;;19.75;11.38;;;;;;;-2.80;100.00;101731.27;1798727;79;21217;-62
2022/01/24 06:51:30;;;;;;;17.87;11.45;;;;;;;-2.78;100.00;101732.09;1799686;79;21306;-62
2022/01/24 06:54:35;;;;;;;19.48;11.03;;;;;;;-2.70;100.00;101726.86;1808836;78;21236;-62
2022/01/24 06:57:45;;;;;;;19.20;10.65;;;;;;;-2.66;100.00;101721.77;1798278;78;21287;-62
2022/01/24 07:00:48;;;;;;;19.90;11.33;;;;;;;-2.67;100.00;101725.40;1798437;79;21220;-62
2022/01/24 07:03:56;;;;;;;18.50;11.43;;;;;;;-2.65;100.00;101724.87;1799384;79;21343;-62
2022/01/24 07:07:02;;;;;;;20.68;11.97;;;;;;;-2.57;100.00;101729.48;1799720;78;21186;-62
2022/01/24 07:10:08;;;;;;;19.42;12.43;;;;;;;-2.58;100.00;101733.52;1798619;79;21212;-62
2022/01/24 07:13:16;;;;;;;16.87;11.15;;;;;;;-2.49;100.00;101746.59;1793333;79;21177;-61
2022/01/24 07:16:35;;;;;;;18.42;11.93;;;;;;;-2.47;100.00;101739.33;1794547;78;21347;-62
2022/01/24 07:19:34;;;;;;;19.90;11.43;;;;;;;-2.45;100.00;101724.07;1792585;79;21201;-61
2022/01/24 07:22:39;;;;;;;18.00;10.60;;;;;;;-2.39;100.00;101742.59;1792673;79;22230;-63
2022/01/24 07:25:44;;;;;;;19.75;12.80;;;;;;;-2.41;100.00;101743.98;1813013;78;21402;-62
2022/01/24 07:28:49;;;;;;;16.75;10.00;;;;;;;-2.44;100.00;101733.39;1792216;80;21232;-62
2022/01/24 07:31:58;;;;;;;19.37;10.68;;;;;;;-2.37;100.00;101738.92;1793112;78;21202;-63
2022/01/24 07:35:06;;;;;;;24.37;12.78;;;;;;;-2.30;100.00;101739.56;1801491;79;21292;-62
2022/01/24 07:38:14;;;;;;;18.10;11.73;;;;;;;-2.25;100.00;101745.13;1781836;78;21200;-63
2022/01/24 07:41:27;;;;;;;18.82;12.15;;;;;;;-2.14;100.00;101742.88;1756115;81;21357;-63
2022/01/24 07:44:32;;;;;;;21.17;11.43;;;;;;;-2.02;100.00;101750.90;1733984;83;22067;-62
2022/01/24 07:47:41;;;;;;;17.32;10.18;;;;;;;-1.89;100.00;101741.41;1740402;82;21204;-63
2022/01/24 07:50:58;;;;;;;21.90;12.07;;;;;;;-1.89;100.00;101741.41;1802048;78;21201;-61
2022/01/24 07:54:08;;;;;;;19.57;11.73;;;;;;;-1.85;100.00;101737.19;1796680;78;21777;-62
2022/01/24 07:57:14;;;;;;;20.65;13.30;;;;;;;-1.79;100.00;101742.75;1747068;81;21210;-65
2022/01/24 08:00:20;;;;;;;19.87;12.65;;;;;;;-1.82;100.00;101746.91;1758212;81;21881;-62
2022/01/24 08:03:28;;;;;;;19.77;12.63;;;;;;;-1.85;100.00;101746.58;1737888;81;21241;-63
2022/01/24 08:06:36;;;;;;;19.42;11.57;;;;;;;-1.77;100.00;101748.47;1753714;81;22081;-62
2022/01/24 08:09:44;;;;;;;17.57;12.03;;;;;;;-1.81;100.00;101744.16;1753621;81;21242;-61
2022/01/24 08:12:51;;;;;;;20.40;11.38;;;;;;;-1.73;100.00;101753.25;1765415;80;21789;-61
2022/01/24 08:15:57;;;;;;;17.48;9.90;;;;;;;-1.58;100.00;101736.02;1767493;81;21577;-63
2022/01/24 08:19:04;;;;;;;22.90;13.43;;;;;;;-1.53;100.00;101742.52;1768564;81;21703;-62
2022/01/24 08:22:12;;;;;;;17.65;11.20;;;;;;;-1.42;100.00;101724.59;1768660;81;21201;-62
2022/01/24 08:25:22;;;;;;;18.80;12.65;;;;;;;-1.27;100.00;101744.06;1768575;81;21315;-63
2022/01/24 08:28:34;;;;;;;30.05;16.60;;;;;;;-1.15;100.00;101744.39;1687565;84;21277;-62
2022/01/24 08:31:46;;;;;;;22.65;14.85;;;;;;;-1.00;100.00;101750.89;1685901;84;21230;-63
2022/01/24 08:34:52;;;;;;;18.02;10.48;;;;;;;-1.09;99.03;101754.86;1695313;84;21565;-62
2022/01/24 08:38:02;;;;;;;19.48;11.80;;;;;;;-1.05;98.58;101743.50;1694170;84;21228;-62
2022/01/24 08:41:17;;;;;;;16.67;11.68;;;;;;;-1.08;97.81;101746.34;1692921;84;21404;-61
2022/01/24 08:44:33;;;;;;;18.05;11.15;;;;;;;-1.08;97.10;101750.36;1697730;83;21237;-62
2022/01/24 08:47:31;;;;;;;14.55;9.78;;;;;;;-1.08;96.17;101753.05;1729671;81;21217;-63
2022/01/24 08:50:39;;;;;;;21.73;14.10;;;;;;;-1.13;95.24;101751.03;1733148;81;21205;-62
2022/01/24 08:53:46;;;;;;;18.23;11.43;;;;;;;-1.09;95.45;101751.28;1733407;81;21229;-62
2022/01/24 08:56:55;;;;;;;13.05;9.30;;;;;;;-1.03;94.96;101755.06;1709661;83;21750;-62
2022/01/24 09:00:01;;;;;;;15.90;10.13;;;;;;;-0.89;94.93;101752.63;1668690;86;21280;-62
2022/01/24 09:03:08;;;;;;;15.78;10.53;;;;;;;-0.76;94.01;101749.77;1702120;83;21641;-61
2022/01/24 09:06:17;;;;;;;16.42;10.75;;;;;;;-0.77;92.75;101745.32;1725273;82;21274;-63
2022/01/24 09:09:22;;;;;;;13.08;9.58;;;;;;;-0.74;91.96;101747.41;1667140;86;21385;-62
2022/01/24 09:12:31;;;;;;;15.93;10.32;;;;;;;-0.50;92.01;101740.00;1724576;83;21194;-63
2022/01/24 09:15:36;;;;;;;14.18;10.00;;;;;;;-0.29;91.45;101749.73;1734669;82;21199;-62
2022/01/24 09:18:44;;;;;;;14.83;10.75;;;;;;;-0.21;89.08;101727.38;1734781;82;21713;-63
2022/01/24 09:21:54;;;;;;;16.00;10.38;;;;;;;-0.15;89.05;101740.05;1738624;82;21948;-63
2022/01/24 09:24:59;;;;;;;14.07;9.68;;;;;;;-0.09;87.99;101734.36;1735418;82;21228;-62
2022/01/24 09:28:05;;;;;;;16.65;11.35;;;;;;;-0.08;86.70;101736.59;1736003;82;21350;-62
2022/01/24 09:31:11;;;;;;;16.90;11.75;;;;;;;-0.23;85.69;101738.20;1736543;82;21344;-63
2022/01/24 09:34:20;;;;;;;15.28;9.30;;;;;;;-0.31;84.54;101734.13;1735183;82;21357;-63
2022/01/24 09:37:31;;;;;;;16.07;9.33;;;;;;;-0.35;83.58;101729.86;1704781;84;21344;-61
2022/01/24 09:40:47;;;;;;;16.75;8.85;;;;;;;-0.35;80.92;101737.94;1683075;84;21647;-63
2022/01/24 09:43:53;;;;;;;16.45;10.68;;;;;;;-0.43;82.72;101728.02;1704758;83;21295;-62
2022/01/24 09:46:59;;;;;;;20.27;11.30;;;;;;;-0.38;82.64;101738.94;1768708;80;21439;-63
2022/01/24 09:50:18;;;;;;;15.72;9.85;;;;;;;-0.43;80.00;101734.73;1754520;79;21220;-62
2022/01/24 09:53:24;;;;;;;17.05;10.80;;;;;;;-0.51;80.30;101722.13;1710208;82;21895;-63
2022/01/24 09:56:29;;;;;;;15.63;10.50;;;;;;;-0.55;79.33;101723.20;1772468;80;21174;-62
2022/01/24 09:59:35;;;;;;;16.25;10.40;;;;;;;-0.45;79.11;101725.41;1767883;80;21335;-61
2022/01/24 10:02:42;;;;;;;14.40;9.63;;;;;;;-0.33;78.14;101719.41;1790167;80;21221;-63
2022/01/24 10:05:48;;;;;;;13.50;8.35;;;;;;;-0.34;77.89;101719.03;1788411;80;21917;-62
2022/01/24 10:08:57;;;;;;;17.23;11.45;;;;;;;-0.31;76.34;101702.73;1787737;80;21221;-62
2022/01/24 10:18:49;;;;;;;15.75;10.68;;;;;;;-0.14;75.13;101715.34;1773786;80;21211;-61
2022/01/24 10:22:06;;;;;;;18.85;12.58;;;;;;;-0.04;74.38;101706.75;1791338;80;21223;-64
2022/01/24 10:25:15;;;;;;;21.30;14.13;;;;;;;-0.13;75.80;101704.99;1792511;80;21327;-63
2022/01/24 10:28:30;;;;;;;19.95;12.80;;;;;;;-0.17;74.18;101704.73;1752336;80;21185;-62
2022/01/24 10:31:37;;;;;;;17.20;11.33;;;;;;;-0.20;73.25;101695.47;1770795;80;21261;-62
2022/01/24 10:34:43;;;;;;;18.50;12.18;;;;;;;-0.18;72.85;101693.12;1792646;80;21987;-62
2022/01/24 10:37:52;;;;;;;15.60;10.20;;;;;;;-0.18;74.00;101695.81;1739827;81;21579;-61
2022/01/24 10:41:10;;;;;;;15.00;9.68;;;;;;;-0.29;74.12;101696.81;1743700;82;21263;-62
2022/01/24 10:44:14;;;;;;;15.63;10.68;;;;;;;-0.33;73.40;101698.36;1775543;80;21437;-62
2022/01/24 10:47:33;;;;;;;14.55;10.72;;;;;;;-0.30;73.25;101704.93;1781721;80;21775;-63
2022/01/24 10:50:39;;;;;;;16.25;10.95;;;;;;;-0.31;73.14;101691.09;1755256;81;22007;-62
2022/01/24 10:53:58;;;;;;;15.08;10.50;;;;;;;-0.21;74.06;101699.13;1732825;82;21456;-63
2022/01/24 10:57:04;;;;;;;12.10;9.38;;;;;;;-0.12;74.42;101691.92;1768462;80;21734;-62
2022/01/24 11:00:32;;;;;;;16.48;9.78;;;;;;;0.03;73.02;101700.09;1763472;80;21836;-64
2022/01/24 11:03:40;;;;;;;15.80;10.18;;;;;;;-0.01;72.14;101688.22;1777113;80;21307;-61
2022/01/24 11:07:01;;;;;;;14.68;10.40;;;;;;;-0.16;72.08;101685.81;1754665;81;21750;-62
2022/01/24 11:10:07;;;;;;;15.43;9.78;;;;;;;-0.07;72.56;101693.92;1701482;83;21280;-62
2022/01/24 11:13:13;;;;;;;13.93;9.18;;;;;;;-0.13;71.94;101696.42;1713396;80;21188;-62
2022/01/24 11:16:20;;;;;;;15.95;10.70;;;;;;;-0.22;71.84;101700.05;1796205;78;21581;-62
2022/01/24 11:19:30;;;;;;;14.15;9.65;;;;;;;-0.31;71.87;101700.05;1797984;79;21196;-62
2022/01/24 11:22:40;;;;;;;16.25;10.48;;;;;;;-0.35;71.74;101702.97;1809435;78;21374;-62
2022/01/24 11:25:44;;;;;;;14.40;10.00;;;;;;;-0.39;72.42;101699.55;1810050;78;21331;-62
2022/01/24 11:28:51;;;;;;;12.73;8.93;;;;;;;-0.24;73.60;101688.52;1708400;82;21215;-61
2022/01/24 11:32:32;;;;;;;15.23;8.85;;;;;;;0.04;73.84;101688.87;1797750;80;21710;-62
2022/01/24 11:35:54;;;;;;;14.53;9.95;;;;;;;0.16;72.04;101685.54;1807361;78;21199;-61
2022/01/24 11:39:07;;;;;;;13.78;8.63;;;;;;;0.11;74.21;101683.58;1800303;78;21247;-62
2022/01/24 11:42:14;;;;;;;14.50;8.83;;;;;;;0.01;72.96;101664.80;1751857;80;21822;-63
2022/01/24 11:45:25;;;;;;;15.55;9.53;;;;;;;-0.08;71.79;101681.42;1803849;78;21184;-63
2022/01/24 11:48:36;;;;;;;12.25;7.92;;;;;;;-0.03;73.53;101682.92;1803624;78;21189;-62
2022/01/24 11:51:52;;;;;;;15.85;9.85;;;;;;;-0.17;74.35;101676.48;1802731;78;21234;-62
2022/01/24 11:55:36;;;;;;;11.80;8.58;;;;;;;-0.19;74.80;101684.63;1800169;78;21217;-63
2022/01/24 11:58:35;;;;;;;14.18;9.78;;;;;;;-0.21;73.55;101687.02;1804068;78;21330;-62
2022/01/24 12:01:41;;;;;;;16.35;9.70;;;;;;;-0.30;73.24;101672.19;1799884;78;21235;-62
2022/01/24 12:05:08;;;;;;;18.52;11.08;;;;;;;-0.32;73.07;101695.59;1798178;79;21748;-62
2022/01/24 12:08:51;;;;;;;14.75;10.25;;;;;;;-0.44;75.15;101683.22;1807533;78;21185;-63
2022/01/24 12:11:56;;;;;;;19.35;10.82;;;;;;;-0.62;78.92;101680.09;1798881;79;21385;-62
2022/01/24 12:15:02;;;;;;;15.40;9.35;;;;;;;-0.62;79.28;101689.50;1796946;79;21347;-63
2022/01/24 12:18:10;;;;;;;17.98;11.12;;;;;;;-0.74;78.40;101688.26;1754859;79;21324;-62
2022/01/24 12:21:24;;;;;;;15.83;10.88;;;;;;;-0.81;77.70;101687.29;1756331;80;21206;-62
2022/01/24 12:24:31;;;;;;;15.60;9.78;;;;;;;-0.82;78.04;101683.72;1783494;80;21722;-62
2022/01/24 12:27:36;;;;;;;16.05;10.30;;;;;;;-0.90;77.68;101676.48;1748617;80;21240;-62
2022/01/24 12:31:23;;;;;;;14.43;10.28;;;;;;;-0.98;79.30;101674.63;1779882;80;21189;-62
2022/01/24 12:34:38;;;;;;;13.35;8.88;;;;;;;-1.00;78.88;101668.94;1785502;80;21398;-62
2022/01/24 12:37:46;;;;;;;15.23;10.23;;;;;;;-1.02;82.91;101685.13;1696580;84;21272;-63
2022/01/24 12:40:56;;;;;;;15.32;11.15;;;;;;;-1.13;84.82;101687.44;1699686;83;21193;-62
2022/01/24 12:47:15;;;;;;;15.15;10.23;;;;;;;-1.15;84.60;101700.06;1761189;81;21248;-62
2022/01/24 12:50:20;;;;;;;16.32;11.15;;;;;;;-1.23;84.04;101683.42;1749852;80;21785;-63
2022/01/24 12:53:30;;;;;;;20.37;13.48;;;;;;;-1.28;85.04;101698.02;1766630;80;21206;-62
2022/01/24 12:56:37;;;;;;;16.67;12.07;;;;;;;-1.34;84.99;101688.41;1764269;80;21284;-62
2022/01/24 12:59:45;;;;;;;15.70;10.72;;;;;;;-1.33;84.58;101691.48;1773937;80;21232;-62
2022/01/24 13:02:50;;;;;;;13.98;9.45;;;;;;;-1.29;84.68;101688.20;1771963;80;21228;-64
2022/01/24 13:05:57;;;;;;;16.37;11.22;;;;;;;-1.26;84.10;101686.25;1764463;80;21912;-62
2022/01/24 13:09:07;;;;;;;18.12;11.00;;;;;;;-1.26;83.31;101693.42;1769836;80;21585;-61
2022/01/24 13:12:14;;;;;;;16.57;11.12;;;;;;;-1.30;82.74;101694.02;1790586;80;21200;-62
2022/01/24 13:22:10;;;;;;;16.93;10.38;;;;;;;-1.32;82.28;101693.25;1798171;78;21177;-62
2022/01/24 13:25:30;;;;;;;14.38;10.00;;;;;;;-1.41;81.74;101683.39;1799536;79;21823;-63
2022/01/24 13:28:36;;;;;;;16.23;10.60;;;;;;;-1.47;81.71;101679.15;1785725;79;21205;-61
2022/01/24 13:31:42;;;;;;;15.83;11.22;;;;;;;-1.55;82.00;101679.95;1798380;79;21165;-62
2022/01/24 13:34:48;;;;;;;16.62;10.05;;;;;;;-1.62;86.45;101690.09;1798916;78;21569;-62
2022/01/24 13:37:58;;;;;;;33.58;17.27;;;;;;;-1.61;87.93;101695.88;1800315;79;21171;-63
2022/01/24 13:41:23;;;;;;;14.58;10.38;;;;;;;-1.57;87.71;101701.50;1800239;79;21554;-62
2022/01/24 13:44:28;;;;;;;16.17;11.00;;;;;;;-1.59;86.65;101699.84;1799151;79;21203;-62
2022/01/24 13:47:33;;;;;;;14.70;9.28;;;;;;;-1.63;85.26;101692.84;1798041;78;21212;-62
2022/01/24 13:50:40;;;;;;;15.40;9.88;;;;;;;-1.68;84.10;101706.47;1821249;78;21323;-62
2022/01/24 13:53:51;;;;;;;16.65;11.28;;;;;;;-1.73;83.01;101711.16;1743463;81;21217;-63
2022/01/24 13:57:02;;;;;;;16.48;9.68;;;;;;;-1.80;82.05;101720.43;1816884;78;21170;-62
2022/01/24 14:00:15;;;;;;;14.15;10.30;;;;;;;-1.81;81.43;101701.71;1798285;79;21259;-63
2022/01/24 14:03:21;;;;;;;17.27;10.53;;;;;;;-1.81;80.92;101707.93;1798748;78;21185;-63
2022/01/24 14:06:27;;;;;;;15.38;10.08;;;;;;;-1.86;80.27;101701.91;1799862;79;21718;-63
2022/01/24 14:09:42;;;;;;;18.17;10.68;;;;;;;-1.88;79.56;101723.91;1810894;78;21257;-63
2022/01/24 14:12:56;;;;;;;16.93;10.25;;;;;;;-1.93;79.15;101716.97;1798151;78;21575;-61
2022/01/24 14:16:09;;;;;;;15.95;11.18;;;;;;;-1.93;78.89;101711.14;1800715;78;21503;-62
2022/01/24 14:19:13;;;;;;;13.65;9.08;;;;;;;-1.97;78.55;101718.94;1794150;79;21188;-61
2022/01/24 14:22:21;;;;;;;16.75;11.40;;;;;;;-1.98;78.31;101715.83;1798505;78;21208;-63
2022/01/24 14:25:33;;;;;;;17.23;10.43;;;;;;;-2.00;77.96;101718.19;1796811;78;21176;-64
2022/01/24 14:28:42;;;;;;;15.53;10.20;;;;;;;-2.07;77.67;101714.00;1797357;78;21793;-63
2022/01/24 14:31:52;;;;;;;18.35;10.43;;;;;;;-2.10;77.68;101714.13;1799110;78;21304;-63
2022/01/24 14:34:55;;;;;;;14.58;9.55;;;;;;;-2.08;77.50;101710.44;1799495;78;21219;-61
2022/01/24 14:38:03;;;;;;;14.73;9.40;;;;;;;-2.09;77.13;101712.72;1816144;78;21351;-61
2022/01/24 14:41:21;;;;;;;14.30;9.18;;;;;;;-2.12;77.00;101716.88;1807467;78;21753;-63
2022/01/24 14:47:50;;;;;;;14.53;9.53;;;;;;;-2.15;76.75;101733.09;1741150;81;21798;-63
2022/01/24 14:50:55;;;;;;;15.43;9.55;;;;;;;-2.16;76.62;101724.66;1733809;81;21202;-62
2022/01/24 14:54:02;;;;;;;19.75;11.15;;;;;;;-2.16;76.59;101731.36;1767461;80;21594;-62
2022/01/24 14:57:12;;;;;;;14.87;9.23;;;;;;;-2.13;76.50;101735.72;1751609;81;21212;-63
2022/01/24 15:00:17;;;;;;;18.45;10.90;;;;;;;-2.07;76.57;101735.00;1756948;81;21189;-62
2022/01/24 15:03:23;;;;;;;13.55;8.78;;;;;;;-2.02;76.28;101730.33;1728927;82;21197;-62
2022/01/24 15:06:28;;;;;;;17.85;12.07;;;;;;;-1.97;75.97;101744.42;1796781;80;21618;-63
2022/01/24 15:09:41;;;;;;;16.90;10.20;;;;;;;-1.96;75.84;101742.13;1801993;78;21279;-61
2022/01/24 15:12:52;;;;;;;18.63;11.03;;;;;;;-1.96;75.58;101743.47;1798695;78;21179;-61
2022/01/24 15:16:12;;;;;;;16.50;10.38;;;;;;;-1.98;75.53;101747.14;1796711;79;21191;-63
2022/01/24 15:25:55;;;;;;;14.98;8.58;;;;;;;-1.96;75.29;101743.94;1762839;81;21837;-61
2022/01/24 15:29:02;;;;;;;21.50;11.63;;;;;;;-1.98;75.25;101751.16;1738117;82;21232;-62
2022/01/24 15:32:09;;;;;;;15.65;10.30;;;;;;;-2.03;75.11;101755.38;1759974;81;21319;-62
2022/01/24 15:35:18;;;;;;;22.05;10.78;;;;;;;-2.05;75.16;101750.58;1759492;81;21363;-62
2022/01/24 15:38:27;;;;;;;18.85;10.78;;;;;;;-2.00;75.29;101752.57;1759355;81;21225;-63
2022/01/24 15:41:33;;;;;;;16.32;10.93;;;;;;;-2.00;75.18;101749.88;1759408;81;21432;-62
2022/01/24 15:48:01;;;;;;;23.38;12.33;;;;;;;-1.94;75.07;101760.39;1760180;81;21328;-62
2022/01/24 15:51:12;;;;;;;18.50;11.83;;;;;;;-1.82;75.35;101759.86;1760906;81;21853;-62
2022/01/24 15:54:21;;;;;;;16.52;10.88;;;;;;;-1.76;74.82;101769.48;1760976;81;21355;-62
2022/01/24 15:57:42;;;;;;;17.45;10.28;;;;;;;-1.76;74.70;101761.44;1761170;81;21214;-62
2022/01/24 16:00:48;;;;;;;17.07;10.80;;;;;;;-1.71;74.45;101772.82;1761420;81;21900;-63
2022/01/24 16:03:55;;;;;;;18.45;10.68;;;;;;;-1.76;74.08;101770.83;1761098;81;21234;-62
2022/01/24 16:07:02;;;;;;;21.42;12.45;;;;;;;-1.75;74.40;101768.08;1761376;81;21255;-62
2022/01/24 16:10:11;;;;;;;18.30;11.33;;;;;;;-1.70;74.16;101774.59;1761024;81;21351;-63
2022/01/24 16:13:19;;;;;;;17.23;11.10;;;;;;;-1.66;74.17;101771.70;1745200;81;21351;-64
2022/01/24 16:16:25;;;;;;;15.23;10.10;;;;;;;-1.63;74.07;101771.58;1760886;81;21850;-62